Time;durP1;ratioP1;P1;durP2;ratioP2;P2;SDS_P1;SDS_P2;PMS_P1;PMS_P2;Temp;Humidity;BMP_temperature;BMP_pressure;BME280_temperature;BME280_humidity;BME280_pressure;Samples;Min_cycle;Max_cycle;Signal;HPM_P1;HPM_P2
2023/12/18 00:01:09;;;;;;;21.13;9.38;;;;;;;-146.27;82.21;33039.41;5069143;28;20483;-69
2023/12/18 00:03:34;;;;;;;20.02;8.48;;;;;;;-146.27;81.39;32971.94;5068022;28;20063;-68
2023/12/18 00:06:00;;;;;;;24.08;9.15;;;;;;;-146.27;81.71;32966.00;5068909;28;20167;-68
2023/12/18 00:08:25;;;;;;;19.98;8.57;;;;;;;-146.27;81.36;32938.22;5076712;28;20029;-68
2023/12/18 00:10:51;;;;;;;15.98;9.00;;;;;;;-146.27;81.13;32904.50;5069823;28;20028;-68
2023/12/18 00:13:16;;;;;;;17.58;8.35;;;;;;;-146.27;82.59;33053.28;5065850;28;20024;-69
2023/12/18 00:15:41;;;;;;;27.35;9.00;;;;;;;-146.27;81.87;32969.97;5068775;28;20032;-69
2023/12/18 00:18:07;;;;;;;21.80;8.98;;;;;;;-146.27;82.04;33045.34;5068956;28;20029;-68
2023/12/18 00:20:32;;;;;;;28.67;9.15;;;;;;;-146.27;82.82;32989.81;5073685;28;20413;-68
2023/12/18 00:22:58;;;;;;;31.83;10.00;;;;;;;-146.27;82.49;33005.69;5063878;28;20134;-69
2023/12/18 00:25:23;;;;;;;23.23;9.07;;;;;;;-146.27;82.02;32966.00;5069730;28;20362;-68
2023/12/18 00:27:48;;;;;;;26.05;9.50;;;;;;;-146.27;80.75;32856.88;5063244;28;20024;-68
2023/12/18 00:30:14;;;;;;;21.60;9.52;;;;;;;-146.27;80.75;32862.84;5064746;28;20021;-68
2023/12/18 00:32:39;;;;;;;22.90;9.75;;;;;;;-146.27;82.19;33007.66;5058803;28;20063;-68
2023/12/18 00:35:05;;;;;;;23.25;8.95;;;;;;;-146.27;82.79;33051.31;5066287;28;20028;-69
2023/12/18 00:37:30;;;;;;;23.13;9.52;;;;;;;-146.27;82.87;33013.63;5062125;28;20043;-67
2023/12/18 00:39:55;;;;;;;19.27;9.23;;;;;;;-146.27;83.39;33120.75;5068428;28;20059;-68
2023/12/18 00:42:21;;;;;;;22.15;9.95;;;;;;;-146.27;82.90;33065.19;5064026;28;20025;-69
2023/12/18 00:44:46;;;;;;;26.52;9.90;;;;;;;-146.27;83.38;33138.59;5068353;28;20357;-68
2023/12/18 00:47:11;;;;;;;22.40;10.43;;;;;;;-146.27;83.78;33148.53;5063919;28;20675;-68
2023/12/18 00:49:37;;;;;;;26.83;11.05;;;;;;;-146.27;82.40;32971.94;5063131;28;20020;-68
2023/12/18 00:52:02;;;;;;;33.58;10.20;;;;;;;-146.27;82.62;33041.38;5078150;28;20036;-68
2023/12/18 00:54:28;;;;;;;20.17;10.32;;;;;;;-146.27;82.10;33013.63;5063521;28;20104;-70
2023/12/18 00:56:53;;;;;;;25.45;10.52;;;;;;;-146.27;82.23;32966.00;5062274;28;20036;-68
2023/12/18 00:59:19;;;;;;;25.20;10.02;;;;;;;-146.27;81.33;32910.44;5058686;28;20031;-67
2023/12/18 01:01:44;;;;;;;22.70;10.27;;;;;;;-146.27;82.30;33053.28;5065289;28;20024;-68
2023/12/18 01:04:09;;;;;;;23.85;10.30;;;;;;;-146.27;81.30;32944.19;5065310;28;20070;-68
2023/12/18 01:06:35;;;;;;;32.28;10.82;;;;;;;-146.27;81.14;32930.28;5063833;28;20032;-69
2023/12/18 01:09:00;;;;;;;29.25;11.05;;;;;;;-146.27;82.59;33029.47;5064734;28;20043;-68
2023/12/18 01:11:25;;;;;;;28.88;9.50;;;;;;;-146.27;82.41;33017.56;5075604;28;20439;-68
2023/12/18 01:13:51;;;;;;;22.35;10.02;;;;;;;-146.27;82.28;32993.78;5065741;28;20038;-68
2023/12/18 01:16:17;;;;;;;19.30;10.05;;;;;;;-146.27;81.98;32999.72;5068666;28;20495;-68
2023/12/18 01:18:42;;;;;;;31.52;9.65;;;;;;;-146.27;82.71;33013.63;5066310;28;20495;-68
2023/12/18 01:21:07;;;;;;;24.98;10.57;;;;;;;-146.27;81.98;32926.31;5063321;28;20037;-68
2023/12/18 01:23:33;;;;;;;29.77;10.25;;;;;;;-146.27;82.77;33001.72;5061396;28;20028;-69
2023/12/18 01:25:58;;;;;;;26.40;10.25;;;;;;;-146.27;81.60;32886.63;5069447;28;20070;-69
2023/12/18 01:28:23;;;;;;;24.08;11.10;;;;;;;-146.27;81.44;32922.34;5067143;28;20020;-69
2023/12/18 01:30:49;;;;;;;26.70;10.65;;;;;;;-146.27;81.57;32969.97;5067522;28;20031;-69
2023/12/18 01:33:14;;;;;;;23.05;10.52;;;;;;;-146.27;82.88;33021.53;5070095;28;20111;-68
2023/12/18 01:35:39;;;;;;;29.23;10.90;;;;;;;-146.27;82.32;32946.16;5066200;28;20059;-68
2023/12/18 01:38:05;;;;;;;26.80;10.65;;;;;;;-146.27;82.41;32954.09;5064019;28;20024;-70
2023/12/18 01:40:30;;;;;;;26.42;9.45;;;;;;;-146.27;82.47;32989.81;5062264;28;20150;-69
2023/12/18 01:42:55;;;;;;;26.33;9.40;;;;;;;-146.27;83.19;33045.34;5067313;28;20048;-67
2023/12/18 01:45:21;;;;;;;25.52;10.40;;;;;;;-146.27;83.91;33112.81;5068723;28;20067;-67
2023/12/18 01:47:46;;;;;;;22.15;10.35;;;;;;;-146.27;83.45;33049.31;5064032;28;20020;-70
2023/12/18 01:50:12;;;;;;;25.45;11.75;;;;;;;-146.27;84.09;33081.06;5063775;28;20030;-68
2023/12/18 01:52:38;;;;;;;24.00;11.32;;;;;;;-146.27;83.66;33053.28;5061717;28;20044;-68
2023/12/18 01:55:05;;;;;;;23.73;10.20;;;;;;;-146.27;82.92;32966.00;5071135;28;20391;-67
2023/12/18 01:57:32;;;;;;;23.42;12.48;;;;;;;-146.27;83.59;33043.38;5069944;28;20173;-67
2023/12/18 01:59:57;;;;;;;29.67;11.85;;;;;;;-146.27;83.33;33063.22;5067234;28;20695;-67
2023/12/18 02:02:23;;;;;;;24.52;12.13;;;;;;;-146.27;83.20;33059.25;5069389;28;20028;-68
2023/12/18 02:04:49;;;;;;;23.30;12.48;;;;;;;-146.27;83.16;33045.34;5069032;28;20031;-68
2023/12/18 02:07:14;;;;;;;23.98;11.50;;;;;;;-146.27;83.16;33077.09;5064363;28;20059;-68
2023/12/18 02:09:41;;;;;;;25.70;12.07;;;;;;;-146.27;83.27;33055.28;5069895;28;20071;-69
2023/12/18 02:12:06;;;;;;;21.73;11.68;;;;;;;-146.27;82.77;33057.25;5067954;28;20369;-68
2023/12/18 02:14:32;;;;;;;39.00;12.75;;;;;;;-146.27;83.10;33073.13;5057980;28;20076;-67
2023/12/18 02:16:57;;;;;;;26.73;13.60;;;;;;;-146.27;83.46;33108.84;5068210;28;20044;-69
2023/12/18 02:19:27;;;;;;;27.02;13.65;;;;;;;-146.27;82.33;32995.75;5065541;28;20020;-67
2023/12/18 02:21:56;;;;;;;26.70;12.35;;;;;;;-146.27;83.68;33136.63;5066661;28;20423;-69
2023/12/18 02:24:22;;;;;;;25.30;12.68;;;;;;;-146.27;83.10;33041.38;5059877;28;20029;-68
2023/12/18 02:26:47;;;;;;;24.70;12.55;;;;;;;-146.27;83.58;33110.81;5064535;28;20593;-68
2023/12/18 02:29:13;;;;;;;30.58;13.38;;;;;;;-146.27;83.43;33085.03;5076946;28;20100;-67
2023/12/18 02:31:39;;;;;;;29.15;12.43;;;;;;;-146.27;82.96;33065.19;5073347;28;20028;-67
2023/12/18 02:34:05;;;;;;;27.42;12.43;;;;;;;-146.27;82.98;33077.09;5069037;28;20091;-70
2023/12/18 02:36:30;;;;;;;31.88;12.18;;;;;;;-146.27;84.30;33176.31;5060267;28;20056;-68
2023/12/18 02:38:56;;;;;;;28.45;13.18;;;;;;;-146.27;85.98;33247.72;5064697;28;20033;-69
2023/12/18 02:41:21;;;;;;;26.70;13.07;;;;;;;-146.27;84.13;33140.59;5071606;28;20549;-68
2023/12/18 02:43:46;;;;;;;25.88;12.18;;;;;;;-146.27;84.10;33154.47;5071705;28;20028;-68
2023/12/18 02:46:12;;;;;;;28.50;12.65;;;;;;;-146.27;84.04;33122.72;5067579;28;20447;-68
2023/12/18 02:48:37;;;;;;;26.52;13.02;;;;;;;-146.27;84.04;33116.78;5068752;28;20028;-68
2023/12/18 02:51:03;;;;;;;27.40;13.07;;;;;;;-146.27;84.48;33140.59;5070491;28;20036;-67
2023/12/18 02:53:28;;;;;;;25.30;12.77;;;;;;;-146.27;83.59;33047.34;5066733;28;20033;-67
2023/12/18 02:55:54;;;;;;;28.83;12.20;;;;;;;-146.27;83.75;33063.22;5069451;28;20040;-70
2023/12/18 02:58:21;;;;;;;24.13;12.60;;;;;;;-146.27;84.67;33194.16;5065732;28;20029;-68
2023/12/18 03:00:47;;;;;;;26.55;12.70;;;;;;;-146.27;84.94;33176.31;5076360;28;20028;-68
2023/12/18 03:03:13;;;;;;;29.63;13.35;;;;;;;-146.27;85.65;33112.81;5062717;28;20052;-68
2023/12/18 03:05:38;;;;;;;23.92;12.27;;;;;;;-146.27;84.34;33116.78;5069595;28;20024;-68
2023/12/18 03:08:04;;;;;;;31.38;12.73;;;;;;;-146.27;84.45;33085.03;5061754;28;20051;-69
2023/12/18 03:10:30;;;;;;;32.28;12.85;;;;;;;-146.27;84.80;33069.16;5073490;28;20049;-68
2023/12/18 03:12:55;;;;;;;26.08;14.00;;;;;;;-146.27;84.23;33011.63;5072777;28;20021;-68
2023/12/18 03:15:20;;;;;;;28.35;12.65;;;;;;;-146.27;85.63;33174.31;5067973;28;20060;-69
2023/12/18 03:17:46;;;;;;;30.02;12.82;;;;;;;-146.27;85.03;33096.94;5068807;28;20349;-68
2023/12/18 03:20:11;;;;;;;26.25;13.68;;;;;;;-146.27;84.51;33100.91;5069879;28;20031;-68
2023/12/18 03:22:37;;;;;;;27.33;12.10;;;;;;;-146.27;85.54;33206.06;5067789;28;20029;-68
2023/12/18 03:25:03;;;;;;;33.97;12.38;;;;;;;-146.27;85.32;33142.56;5070582;28;20047;-67
2023/12/18 03:27:29;;;;;;;28.45;14.15;;;;;;;-146.27;84.88;33059.25;5070109;28;20040;-68
2023/12/18 03:29:54;;;;;;;29.42;12.93;;;;;;;-146.27;84.64;33089.00;5070795;28;20058;-67
2023/12/18 03:32:19;;;;;;;27.98;11.57;;;;;;;-146.27;84.02;33021.53;5058706;28;20055;-68
2023/12/18 03:34:45;;;;;;;29.25;12.13;;;;;;;-146.27;84.04;33037.41;5067125;28;20043;-68
2023/12/18 03:37:10;;;;;;;28.23;12.43;;;;;;;-146.27;83.99;33059.25;5068503;28;20039;-67
2023/12/18 03:39:36;;;;;;;24.42;11.82;;;;;;;-146.27;85.60;33152.50;5070308;28;20375;-69
2023/12/18 03:42:01;;;;;;;22.38;12.18;;;;;;;-146.27;85.72;33166.38;5068094;28;20067;-69
2023/12/18 03:44:26;;;;;;;26.35;12.02;;;;;;;-146.27;85.84;33170.34;5065314;28;20028;-69
2023/12/18 03:46:52;;;;;;;32.42;12.77;;;;;;;-146.27;86.13;33192.16;5068473;28;20058;-68
2023/12/18 03:49:17;;;;;;;27.73;12.45;;;;;;;-146.27;84.85;33067.19;5066555;28;20116;-68
2023/12/18 03:51:42;;;;;;;26.40;12.93;;;;;;;-146.27;84.66;33081.06;5070488;28;20047;-69
2023/12/18 03:54:08;;;;;;;25.30;13.52;;;;;;;-146.27;84.81;33096.94;5064641;28;20030;-69
2023/12/18 03:56:33;;;;;;;31.90;13.40;;;;;;;-146.27;85.77;33168.38;5067084;28;20044;-67
2023/12/18 03:58:58;;;;;;;30.85;12.68;;;;;;;-146.27;86.25;33180.28;5077196;28;20025;-68
2023/12/18 04:01:24;;;;;;;28.55;12.80;;;;;;;-146.27;86.48;33142.56;5067861;28;20024;-68
2023/12/18 04:03:49;;;;;;;29.73;12.27;;;;;;;-146.27;86.35;33124.72;5068091;28;20040;-67
2023/12/18 04:06:14;;;;;;;26.60;11.82;;;;;;;-146.27;85.18;33091.00;5070351;28;20112;-68
2023/12/18 04:08:39;;;;;;;39.80;13.27;;;;;;;-146.27;84.34;33049.31;5066958;28;20167;-69
2023/12/18 04:11:13;;;;;;;29.83;12.77;;;;;;;-146.27;86.26;33184.25;5063688;28;20115;-68
2023/12/18 04:13:40;;;;;;;30.77;12.30;;;;;;;-146.27;85.63;33156.47;5060867;28;20021;-68
2023/12/18 04:16:05;;;;;;;33.45;12.60;;;;;;;-146.27;84.76;33007.66;5069758;28;20032;-68
2023/12/18 04:18:31;;;;;;;23.92;12.13;;;;;;;-146.27;85.05;33069.16;5065988;28;20039;-69
2023/12/18 04:20:56;;;;;;;37.03;12.52;;;;;;;-146.27;84.87;33039.41;5066471;28;20360;-69
2023/12/18 04:23:21;;;;;;;26.50;12.43;;;;;;;-146.27;84.44;33029.47;5065503;28;20419;-68
2023/12/18 04:25:47;;;;;;;26.95;11.45;;;;;;;-146.27;83.86;33013.63;5068748;28;20391;-69
2023/12/18 04:28:12;;;;;;;28.00;12.52;;;;;;;-146.27;83.39;32962.03;5063270;28;20480;-68
2023/12/18 04:30:38;;;;;;;31.50;11.85;;;;;;;-146.27;84.17;33025.50;5061801;28;20360;-67
2023/12/18 04:33:04;;;;;;;26.73;11.13;;;;;;;-146.27;84.67;33013.63;5058479;28;20033;-67
2023/12/18 04:35:29;;;;;;;23.40;11.45;;;;;;;-146.27;86.20;33138.59;5062387;28;20034;-68
2023/12/18 04:37:54;;;;;;;31.30;11.68;;;;;;;-146.27;85.62;33057.25;5065962;28;20077;-68
2023/12/18 04:40:20;;;;;;;29.33;11.52;;;;;;;-146.27;84.67;33023.53;5069036;28;20406;-69
2023/12/18 04:42:45;;;;;;;23.85;11.50;;;;;;;-146.27;85.75;33118.75;5073933;28;20166;-68
2023/12/18 04:45:11;;;;;;;26.20;11.30;;;;;;;-146.27;85.04;33019.56;5069265;28;20074;-69
2023/12/18 04:47:36;;;;;;;24.80;11.25;;;;;;;-146.27;85.52;33077.09;5063323;28;20033;-68
2023/12/18 04:50:01;;;;;;;29.73;11.88;;;;;;;-146.27;85.02;33067.19;5067186;28;20024;-69
2023/12/18 04:52:27;;;;;;;31.88;11.38;;;;;;;-146.27;85.02;32995.75;5063381;28;20556;-68
2023/12/18 04:54:53;;;;;;;26.65;11.35;;;;;;;-146.27;84.85;33015.59;5067975;28;20066;-68
2023/12/18 04:57:19;;;;;;;23.27;11.20;;;;;;;-146.27;85.21;33033.44;5061534;28;20028;-68
2023/12/18 04:59:44;;;;;;;22.58;10.80;;;;;;;-146.27;84.74;32969.97;5057435;28;20036;-69
2023/12/18 05:02:09;;;;;;;23.30;11.73;;;;;;;-146.27;84.23;32912.44;5065410;28;20064;-69
2023/12/18 05:04:35;;;;;;;27.00;11.35;;;;;;;-146.27;85.57;33087.03;5066659;28;20032;-68
2023/12/18 05:07:00;;;;;;;24.63;12.32;;;;;;;-146.27;85.90;33124.72;5065620;28;20024;-68
2023/12/18 05:09:25;;;;;;;25.75;11.57;;;;;;;-146.27;85.39;32960.03;5064341;28;20024;-69
2023/12/18 05:11:51;;;;;;;26.38;11.80;;;;;;;-146.27;84.95;33021.53;5068377;28;20093;-67
2023/12/18 05:14:17;;;;;;;21.63;10.77;;;;;;;-146.27;84.99;33013.63;5068662;28;20107;-68
2023/12/18 05:16:42;;;;;;;31.42;11.60;;;;;;;-146.27;85.42;33091.00;5066869;28;20477;-68
2023/12/18 05:19:08;;;;;;;21.15;10.57;;;;;;;-146.27;84.72;32912.44;5083899;28;20159;-67
2023/12/18 05:21:33;;;;;;;23.65;10.90;;;;;;;-146.27;84.23;32989.81;5068283;28;20070;-67
2023/12/18 05:23:59;;;;;;;22.35;12.18;;;;;;;-146.27;85.11;33065.19;5069236;28;20531;-67
2023/12/18 05:26:24;;;;;;;33.28;13.10;;;;;;;-146.27;85.04;33029.47;5066770;28;20060;-67
2023/12/18 05:28:49;;;;;;;24.00;11.80;;;;;;;-146.27;85.42;33015.59;5063905;28;20504;-69
2023/12/18 05:31:16;;;;;;;20.75;11.40;;;;;;;-146.27;85.15;33009.66;5067847;28;20115;-68
2023/12/18 05:33:42;;;;;;;30.02;12.43;;;;;;;-146.27;85.43;33011.63;5066550;28;20054;-68
2023/12/18 05:36:08;;;;;;;21.95;11.50;;;;;;;-146.27;84.75;33005.69;5064708;28;20028;-68
2023/12/18 05:38:33;;;;;;;28.58;11.77;;;;;;;-146.27;84.10;32977.91;5071483;28;20181;-68
2023/12/18 05:40:58;;;;;;;23.30;11.52;;;;;;;-146.27;85.24;33065.19;5069740;28;20025;-68
2023/12/18 05:43:24;;;;;;;26.83;11.65;;;;;;;-146.27;85.74;33091.00;5063691;28;20054;-68
2023/12/18 05:45:49;;;;;;;33.03;12.55;;;;;;;-146.27;85.17;32995.75;5060689;28;20130;-68
2023/12/18 05:48:14;;;;;;;30.73;12.13;;;;;;;-146.27;84.53;32973.94;5064992;28;20496;-69
2023/12/18 05:50:40;;;;;;;23.10;11.57;;;;;;;-146.27;84.19;32966.00;5067174;28;20048;-68
2023/12/18 05:53:05;;;;;;;30.00;12.52;;;;;;;-146.27;84.64;32991.78;5065917;28;20142;-69
2023/12/18 05:55:30;;;;;;;28.67;12.88;;;;;;;-146.27;85.21;33045.34;5066154;28;20032;-69
2023/12/18 05:57:56;;;;;;;25.52;12.02;;;;;;;-146.27;85.10;33073.13;5068629;28;20030;-69
2023/12/18 06:00:22;;;;;;;28.38;11.93;;;;;;;-146.27;84.31;32979.88;5066166;28;20259;-69
2023/12/18 06:02:47;;;;;;;26.08;13.32;;;;;;;-146.27;85.07;33033.44;5055356;28;20409;-68
2023/12/18 06:05:13;;;;;;;26.45;12.25;;;;;;;-146.27;85.64;33017.56;5070247;28;20388;-68
2023/12/18 06:07:40;;;;;;;24.98;13.57;;;;;;;-146.27;85.77;33041.38;5064754;28;20033;-68
2023/12/18 06:10:06;;;;;;;21.35;12.23;;;;;;;-146.27;85.38;33033.44;5063561;28;20464;-68
2023/12/18 06:12:32;;;;;;;25.50;13.00;;;;;;;-146.27;84.88;32973.94;5064569;28;20047;-69
2023/12/18 06:14:57;;;;;;;26.75;12.35;;;;;;;-146.27;84.61;32960.03;5056122;28;20048;-68
2023/12/18 06:17:23;;;;;;;27.75;12.85;;;;;;;-146.27;84.36;33001.72;5075662;28;20036;-69
2023/12/18 06:19:49;;;;;;;24.08;12.85;;;;;;;-146.27;84.54;32981.88;5065130;28;20078;-69
2023/12/18 06:22:15;;;;;;;29.02;13.63;;;;;;;-146.27;83.72;32934.25;5057328;28;20028;-68
2023/12/18 06:24:40;;;;;;;28.95;13.50;;;;;;;-146.27;84.33;32954.09;5067109;28;20036;-68
2023/12/18 06:27:06;;;;;;;35.95;13.77;;;;;;;-146.27;84.97;33007.66;5065939;28;20051;-70
2023/12/18 06:29:31;;;;;;;27.05;13.05;;;;;;;-146.27;84.01;32973.94;5064649;28;20046;-70
2023/12/18 06:31:58;;;;;;;26.70;13.88;;;;;;;-146.27;85.49;33073.13;5056432;28;20027;-70
2023/12/18 06:34:23;;;;;;;32.83;12.40;;;;;;;-146.27;85.13;33051.31;5064891;28;20031;-68
2023/12/18 06:36:49;;;;;;;26.80;13.65;;;;;;;-146.27;85.01;33005.69;5065774;28;20032;-69
2023/12/18 06:39:14;;;;;;;31.23;13.70;;;;;;;-146.27;85.46;33059.25;5056304;28;20052;-68
2023/12/18 06:41:40;;;;;;;25.50;13.18;;;;;;;-146.27;84.98;33096.94;5062587;28;20060;-69
2023/12/18 06:44:05;;;;;;;25.83;13.88;;;;;;;-146.27;85.04;33073.13;5057765;28;20035;-69
2023/12/18 06:46:33;;;;;;;30.88;13.48;;;;;;;-146.27;84.99;33089.00;5063347;28;20488;-69
2023/12/18 06:48:59;;;;;;;22.10;12.88;;;;;;;-146.27;84.73;32989.81;5069878;28;20036;-68
2023/12/18 06:51:24;;;;;;;31.08;14.00;;;;;;;-146.27;86.05;33130.66;5070036;28;20040;-69
2023/12/18 06:53:53;;;;;;;36.92;13.80;;;;;;;-146.27;85.85;33110.81;5064285;28;20060;-69
2023/12/18 06:56:18;;;;;;;28.58;13.38;;;;;;;-146.27;86.65;33156.47;5070326;28;20055;-67
2023/12/18 06:58:43;;;;;;;31.33;15.07;;;;;;;-146.27;85.69;33041.38;5068358;28;20060;-70
2023/12/18 07:01:09;;;;;;;25.63;13.13;;;;;;;-146.27;85.68;33091.00;5070960;28;20039;-69
2023/12/18 07:03:35;;;;;;;28.10;13.45;;;;;;;-146.27;86.05;33096.94;5067847;28;20472;-70
2023/12/18 07:06:01;;;;;;;32.72;13.55;;;;;;;-146.27;85.45;33045.34;5069404;28;20053;-69
2023/12/18 07:08:29;;;;;;;23.15;13.70;;;;;;;-146.27;85.21;33025.50;5067088;28;20032;-69
2023/12/18 07:10:56;;;;;;;29.15;14.82;;;;;;;-146.27;85.25;33057.25;5062458;28;20021;-69
2023/12/18 07:13:21;;;;;;;30.83;13.50;;;;;;;-146.27;84.63;33005.69;5064431;28;20111;-68
2023/12/18 07:15:47;;;;;;;29.80;13.20;;;;;;;-146.27;86.18;33108.84;5068205;28;20103;-70
2023/12/18 07:18:13;;;;;;;40.88;14.30;;;;;;;-146.27;85.86;33037.41;5065408;28;20031;-68
2023/12/18 07:20:39;;;;;;;25.80;13.38;;;;;;;-146.27;85.64;33055.28;5069363;28;20539;-69
2023/12/18 07:23:05;;;;;;;27.90;13.93;;;;;;;-146.27;85.51;33053.28;5063796;28;20063;-68
2023/12/18 07:25:30;;;;;;;22.27;13.15;;;;;;;-146.27;84.18;32969.97;5072539;28;20050;-67
2023/12/18 07:27:55;;;;;;;22.33;12.75;;;;;;;-146.27;85.34;33027.50;5067309;28;20029;-69
2023/12/18 07:30:21;;;;;;;33.55;13.05;;;;;;;-146.27;86.34;33061.22;5069062;28;20551;-73
2023/12/18 07:32:46;;;;;;;26.73;12.48;;;;;;;-146.27;84.93;33009.66;5071728;28;20064;-69
2023/12/18 07:35:12;;;;;;;25.77;13.73;;;;;;;-146.27;85.24;32967.97;5070905;28;20046;-69
2023/12/18 07:37:37;;;;;;;31.85;13.63;;;;;;;-146.27;84.49;32942.19;5069501;28;20033;-68
2023/12/18 07:40:04;;;;;;;25.25;12.05;;;;;;;-146.27;84.12;32942.19;5077252;28;20063;-69
2023/12/18 07:42:29;;;;;;;25.42;12.65;;;;;;;-146.27;85.06;33051.31;5078333;28;20081;-69
2023/12/18 07:44:55;;;;;;;24.50;12.77;;;;;;;-146.27;86.02;33005.69;5057964;28;20024;-70
2023/12/18 07:47:20;;;;;;;27.75;12.27;;;;;;;-146.27;86.08;33049.31;5060570;28;20522;-69
2023/12/18 07:49:46;;;;;;;31.17;16.33;;;;;;;-146.27;86.03;33021.53;5071128;28;20028;-69
2023/12/18 07:52:11;;;;;;;27.33;13.07;;;;;;;-146.27;85.94;32977.91;5069717;28;20037;-69
2023/12/18 07:54:36;;;;;;;25.98;12.88;;;;;;;-146.27;85.81;33061.22;5069526;28;20020;-69
2023/12/18 07:57:04;;;;;;;31.73;12.43;;;;;;;-146.27;84.96;32924.34;5054648;28;20384;-68
2023/12/18 07:59:30;;;;;;;28.50;12.38;;;;;;;-146.27;86.08;33069.16;5079036;28;20023;-67
2023/12/18 08:01:55;;;;;;;28.38;13.25;;;;;;;-146.27;85.62;32981.88;5078059;28;20388;-68
2023/12/18 08:04:21;;;;;;;34.08;13.95;;;;;;;-146.27;85.29;32973.94;5070038;28;20024;-69
2023/12/18 08:06:47;;;;;;;21.10;12.27;;;;;;;-146.27;85.51;32952.09;5056128;28;20051;-67
2023/12/18 08:09:13;;;;;;;28.45;13.23;;;;;;;-146.27;85.37;33001.72;5071143;28;20589;-68
2023/12/18 08:11:39;;;;;;;28.25;13.10;;;;;;;-146.27;85.70;33001.72;5071255;28;20054;-68
2023/12/18 08:14:05;;;;;;;27.85;12.07;;;;;;;-146.27;86.32;33033.44;5074450;28;20029;-68
2023/12/18 08:16:30;;;;;;;26.23;12.43;;;;;;;-146.27;85.50;33011.63;5079360;28;20965;-69
2023/12/18 08:18:57;;;;;;;27.85;12.63;;;;;;;-146.27;84.88;32954.09;5070317;28;20021;-69
2023/12/18 08:21:24;;;;;;;31.60;12.65;;;;;;;-146.27;85.20;32950.13;5067456;28;20028;-68
2023/12/18 08:23:50;;;;;;;28.23;13.10;;;;;;;-146.27;86.24;33067.19;5070528;28;20031;-69
2023/12/18 08:26:16;;;;;;;25.77;12.05;;;;;;;-146.27;84.73;32886.63;5066597;28;20033;-68
2023/12/18 08:28:43;;;;;;;39.83;13.00;;;;;;;-146.27;84.04;32882.66;5075826;28;20047;-68
2023/12/18 08:31:08;;;;;;;19.25;11.60;;;;;;;-146.27;84.56;32948.13;5087960;28;20028;-70
2023/12/18 08:33:33;;;;;;;25.10;11.95;;;;;;;-146.27;84.48;32934.25;5070952;28;20024;-68
2023/12/18 08:35:59;;;;;;;28.63;11.90;;;;;;;-146.27;84.18;32898.53;5072325;28;20471;-68
2023/12/18 08:38:24;;;;;;;24.17;12.50;;;;;;;-146.27;85.59;33071.16;5089598;28;20024;-68
2023/12/18 08:40:49;;;;;;;28.90;13.20;;;;;;;-146.27;85.21;32930.28;5089792;28;20027;-68
2023/12/18 08:43:15;;;;;;;30.48;13.55;;;;;;;-146.27;85.21;32973.94;5071558;28;20028;-69
2023/12/18 08:45:41;;;;;;;32.33;13.88;;;;;;;-146.27;85.39;33021.53;5070288;28;20090;-68
2023/12/18 08:48:07;;;;;;;20.75;12.70;;;;;;;-146.27;84.44;32934.25;5090541;28;20070;-69
2023/12/18 08:50:33;;;;;;;21.40;13.23;;;;;;;-146.27;84.25;32942.19;5073039;28;20052;-69
2023/12/18 08:52:58;;;;;;;25.08;12.20;;;;;;;-146.27;85.26;33055.28;5064971;28;20048;-69
2023/12/18 08:55:23;;;;;;;25.17;12.48;;;;;;;-146.27;83.84;32880.69;5073703;28;20546;-69
2023/12/18 08:57:49;;;;;;;31.90;14.30;;;;;;;-146.27;84.04;32954.09;5068393;28;20765;-70
2023/12/18 09:00:14;;;;;;;23.60;13.65;;;;;;;-146.27;84.88;33011.63;5068384;28;20047;-67
2023/12/18 09:02:40;;;;;;;22.90;13.85;;;;;;;-146.27;84.99;32977.91;5076174;28;20035;-70
2023/12/18 09:05:05;;;;;;;27.05;13.35;;;;;;;-146.27;85.21;33007.66;5070416;28;20036;-67
2023/12/18 09:07:31;;;;;;;30.13;13.55;;;;;;;-146.27;84.99;32962.03;5054335;28;20060;-70
2023/12/18 09:09:56;;;;;;;26.75;12.98;;;;;;;-146.27;84.26;32969.97;5077200;28;20020;-69
2023/12/18 09:12:21;;;;;;;31.42;13.60;;;;;;;-146.27;84.78;32987.81;5083415;28;20027;-68
2023/12/18 09:14:47;;;;;;;24.58;12.50;;;;;;;-146.27;84.49;32999.72;5070044;28;20063;-69
2023/12/18 09:17:12;;;;;;;24.35;13.82;;;;;;;-146.27;84.82;32995.75;5057195;28;20060;-69
2023/12/18 09:19:37;;;;;;;24.67;13.35;;;;;;;-146.27;84.31;32989.81;5066992;28;20020;-69
2023/12/18 09:22:04;;;;;;;25.77;13.02;;;;;;;-146.27;83.73;32898.53;5069280;28;20049;-70
2023/12/18 09:24:29;;;;;;;26.08;12.43;;;;;;;-146.27;82.65;32866.81;5068480;28;20100;-68
2023/12/18 09:26:55;;;;;;;31.25;14.13;;;;;;;-146.27;83.17;32878.72;5069974;28;20024;-69
2023/12/18 09:29:22;;;;;;;27.65;13.40;;;;;;;-146.27;84.18;32997.75;5065640;28;20590;-69
2023/12/18 09:31:48;;;;;;;33.83;13.68;;;;;;;-146.27;84.95;32987.81;5065931;28;20036;-69
2023/12/18 09:34:13;;;;;;;25.23;13.63;;;;;;;-146.27;83.77;32922.34;5082789;28;20028;-69
2023/12/18 09:36:38;;;;;;;27.15;14.02;;;;;;;-146.27;83.24;32890.59;5074845;28;20028;-70
2023/12/18 09:39:04;;;;;;;31.67;12.60;;;;;;;-146.27;83.46;32898.53;5069224;28;20028;-68
2023/12/18 09:41:29;;;;;;;26.05;13.02;;;;;;;-146.27;83.69;32898.53;5070584;28;20021;-69
2023/12/18 09:43:54;;;;;;;27.13;12.70;;;;;;;-146.27;84.76;33108.84;5070083;28;20606;-68
2023/12/18 09:46:22;;;;;;;24.65;12.35;;;;;;;-146.27;84.14;32966.00;5067879;28;20457;-69
2023/12/18 09:48:49;;;;;;;23.05;13.07;;;;;;;-146.27;82.90;32878.72;5068211;28;20025;-68
2023/12/18 09:51:17;;;;;;;24.58;13.07;;;;;;;-146.27;83.32;32920.38;5073775;28;20033;-68
2023/12/18 09:53:43;;;;;;;25.73;13.20;;;;;;;-146.27;83.05;32886.63;5075950;28;20115;-69
2023/12/18 09:56:10;;;;;;;25.55;11.88;;;;;;;-146.27;83.91;33001.72;5068189;28;20548;-69
2023/12/18 09:58:38;;;;;;;26.38;12.30;;;;;;;-146.27;85.45;33059.25;5058022;28;20111;-69
2023/12/18 10:01:04;;;;;;;27.05;12.48;;;;;;;-146.27;84.14;32904.50;5050833;28;20032;-70
2023/12/18 10:03:29;;;;;;;27.27;12.43;;;;;;;-146.27;83.39;32914.41;5066718;28;20036;-69
2023/12/18 10:05:55;;;;;;;27.50;12.57;;;;;;;-146.27;84.01;32942.19;5066920;28;20819;-69
2023/12/18 10:08:21;;;;;;;27.02;13.77;;;;;;;-146.27;83.27;32874.75;5061595;28;20567;-69
2023/12/18 10:10:46;;;;;;;23.75;12.38;;;;;;;-146.27;82.03;32720.00;5068058;28;20040;-70
2023/12/18 10:13:13;;;;;;;23.42;12.07;;;;;;;-146.27;82.81;32813.25;5062940;28;20476;-68
2023/12/18 10:15:41;;;;;;;19.10;11.38;;;;;;;-146.27;82.74;32831.09;5081545;28;20029;-69
2023/12/18 10:18:07;;;;;;;22.48;11.63;;;;;;;-146.27;82.80;32811.25;5069410;28;20443;-68
2023/12/18 10:20:34;;;;;;;22.73;12.15;;;;;;;-146.27;83.06;32888.63;5071256;28;20033;-68
2023/12/18 10:23:00;;;;;;;21.67;11.88;;;;;;;-146.27;82.47;32765.63;5070715;28;20050;-69
2023/12/18 10:25:26;;;;;;;24.50;10.98;;;;;;;-146.27;82.76;32829.09;5073680;28;20028;-70
2023/12/18 10:27:55;;;;;;;20.77;11.15;;;;;;;-146.27;83.42;32894.56;5076941;28;20029;-69
2023/12/18 10:30:25;;;;;;;21.67;11.93;;;;;;;-146.27;84.04;32882.66;5076351;28;20050;-68
2023/12/18 10:32:51;;;;;;;27.27;11.82;;;;;;;-146.27;83.66;32924.34;5072004;28;20025;-69
2023/12/18 10:35:17;;;;;;;33.47;13.02;;;;;;;-146.27;84.38;33015.59;5072476;28;20024;-68
2023/12/18 10:37:48;;;;;;;28.75;11.25;;;;;;;-146.27;84.09;32950.13;5075295;28;20024;-67
2023/12/18 10:40:15;;;;;;;23.90;12.27;;;;;;;-146.27;83.71;32846.97;5059214;28;20039;-69
2023/12/18 10:42:46;;;;;;;27.10;12.55;;;;;;;-146.27;82.36;32757.69;5071034;28;20552;-68
2023/12/18 10:45:13;;;;;;;21.08;11.45;;;;;;;-146.27;83.45;32886.63;5072953;28;20032;-69
2023/12/18 10:47:39;;;;;;;25.65;12.57;;;;;;;-146.27;83.17;32811.25;5070960;28;20028;-70
2023/12/18 10:50:05;;;;;;;20.17;12.32;;;;;;;-146.27;83.50;32926.31;5072684;28;20020;-69
2023/12/18 10:52:32;;;;;;;24.95;12.57;;;;;;;-146.27;81.92;32763.63;5072625;28;20082;-69
2023/12/18 10:55:00;;;;;;;30.80;12.60;;;;;;;-146.27;84.38;32918.38;5055339;28;20460;-69